Time;durP1;ratioP1;P1;durP2;ratioP2;P2;SDS_P1;SDS_P2;PMS_P1;PMS_P2;Temp;Humidity;BMP_temperature;BMP_pressure;BME280_temperature;BME280_humidity;BME280_pressure;Samples;Min_cycle;Max_cycle;Signal;HPM_P1;HPM_P2
2021/07/18 00:01:42;;;;;;;6.32;5.15;;;;;;;;;;5018626;28;21003;-80
2021/07/18 00:04:27;;;;;;;6.45;5.20;;;;;;;;;;5021979;28;20048;-80
2021/07/18 00:07:11;;;;;;;7.15;5.07;;;;;;;;;;5020452;28;20109;-79
2021/07/18 00:09:56;;;;;;;6.93;5.40;;;;;;;;;;5023883;28;20044;-79
2021/07/18 00:12:41;;;;;;;7.10;4.97;;;;;;;;;;5022575;28;20413;-79
2021/07/18 00:15:25;;;;;;;6.78;5.20;;;;;;;;;;5009192;28;20426;-77
2021/07/18 00:18:10;;;;;;;5.57;4.82;;;;;;;;;;5008723;28;20055;-77
2021/07/18 00:20:54;;;;;;;6.50;4.95;;;;;;;;;;5004512;28;20048;-80
2021/07/18 00:23:39;;;;;;;6.63;5.20;;;;;;;;;;5017692;28;20149;-77
2021/07/18 00:26:24;;;;;;;5.45;4.63;;;;;;;;;;5024302;28;20426;-79
2021/07/18 00:29:08;;;;;;;6.68;5.03;;;;;;;;;;5023363;28;20044;-79
2021/07/18 00:31:53;;;;;;;7.18;5.15;;;;;;;;;;5024211;28;20592;-77
2021/07/18 00:34:38;;;;;;;6.45;5.18;;;;;;;;;;5014615;28;20079;-79
2021/07/18 00:37:22;;;;;;;6.03;5.32;;;;;;;;;;5023996;28;20028;-76
2021/07/18 00:40:09;;;;;;;7.97;4.95;;;;;;;;;;5022901;28;20048;-77
2021/07/18 00:42:53;;;;;;;5.60;4.65;;;;;;;;;;5011327;28;20044;-77
2021/07/18 00:45:38;;;;;;;9.55;5.28;;;;;;;;;;5023201;28;20121;-79
2021/07/18 00:48:22;;;;;;;7.32;5.20;;;;;;;;;;5023831;28;20040;-79
2021/07/18 00:51:07;;;;;;;6.63;4.93;;;;;;;;;;5018706;28;20509;-79
2021/07/18 00:53:52;;;;;;;5.18;4.68;;;;;;;;;;5023909;28;20044;-79
2021/07/18 00:56:36;;;;;;;7.43;4.90;;;;;;;;;;5020056;28;20043;-79
2021/07/18 00:59:21;;;;;;;6.10;4.70;;;;;;;;;;5019460;28;20041;-77
2021/07/18 01:02:06;;;;;;;7.07;5.20;;;;;;;;;;5021757;28;20103;-79
2021/07/18 01:04:51;;;;;;;8.07;4.90;;;;;;;;;;5024150;28;20040;-77
2021/07/18 01:07:35;;;;;;;7.95;5.07;;;;;;;;;;5027008;28;20059;-77
2021/07/18 01:10:20;;;;;;;6.00;4.45;;;;;;;;;;5029450;28;20051;-79
2021/07/18 01:13:05;;;;;;;6.43;4.82;;;;;;;;;;5021863;28;20035;-78
2021/07/18 01:15:50;;;;;;;5.43;4.32;;;;;;;;;;5001820;28;20044;-78
2021/07/18 01:18:34;;;;;;;7.28;4.85;;;;;;;;;;5009327;28;20039;-79
2021/07/18 01:21:22;;;;;;;5.20;4.47;;;;;;;;;;5023688;28;20055;-79
2021/07/18 01:24:07;;;;;;;6.03;4.50;;;;;;;;;;5023516;28;20129;-78
2021/07/18 01:26:52;;;;;;;5.70;4.40;;;;;;;;;;5022455;28;20064;-77
2021/07/18 01:29:37;;;;;;;6.50;4.25;;;;;;;;;;5011101;28;20092;-78
2021/07/18 01:32:21;;;;;;;5.75;4.63;;;;;;;;;;4999752;28;20167;-77
2021/07/18 01:35:06;;;;;;;6.18;4.68;;;;;;;;;;5009653;28;20049;-78
2021/07/18 01:37:51;;;;;;;5.95;4.63;;;;;;;;;;5022468;28;20095;-78
2021/07/18 01:40:35;;;;;;;7.13;4.28;;;;;;;;;;5025166;28;20047;-78
2021/07/18 01:43:20;;;;;;;6.22;4.65;;;;;;;;;;5024000;28;20402;-78
2021/07/18 01:46:05;;;;;;;5.18;4.32;;;;;;;;;;5024716;28;20040;-78
2021/07/18 01:48:53;;;;;;;5.28;4.55;;;;;;;;;;5009402;28;20607;-78
2021/07/18 01:51:37;;;;;;;5.70;4.55;;;;;;;;;;4996544;28;20104;-78
2021/07/18 01:54:22;;;;;;;6.43;4.65;;;;;;;;;;5027603;28;20036;-78
2021/07/18 01:57:10;;;;;;;7.97;4.63;;;;;;;;;;5028889;28;20123;-78
2021/07/18 01:59:54;;;;;;;5.10;4.43;;;;;;;;;;5028364;28;20119;-78
2021/07/18 02:02:42;;;;;;;9.35;5.05;;;;;;;;;;5028753;28;20047;-78
2021/07/18 02:05:27;;;;;;;4.80;4.13;;;;;;;;;;5027484;28;20048;-77
2021/07/18 02:08:12;;;;;;;5.80;4.57;;;;;;;;;;5026979;28;20501;-76
2021/07/18 02:10:56;;;;;;;6.57;4.38;;;;;;;;;;5027162;28;20248;-78
2021/07/18 02:13:41;;;;;;;5.07;4.13;;;;;;;;;;5008947;28;20434;-78
2021/07/18 02:16:25;;;;;;;5.95;4.28;;;;;;;;;;5010240;28;20073;-78
2021/07/18 02:19:10;;;;;;;5.32;4.32;;;;;;;;;;5027592;28;20553;-77
2021/07/18 02:21:55;;;;;;;6.78;4.20;;;;;;;;;;5028099;28;20040;-78
2021/07/18 02:24:40;;;;;;;5.30;4.03;;;;;;;;;;5027048;28;20575;-77
2021/07/18 02:27:24;;;;;;;5.20;4.00;;;;;;;;;;5026769;28;20129;-78
2021/07/18 02:30:10;;;;;;;5.72;4.03;;;;;;;;;;5022223;28;20079;-78
2021/07/18 02:32:55;;;;;;;5.88;3.92;;;;;;;;;;5012682;28;20040;-78
2021/07/18 02:35:40;;;;;;;4.38;3.60;;;;;;;;;;5025971;28;20052;-78
2021/07/18 02:38:25;;;;;;;5.68;3.90;;;;;;;;;;4993490;28;20133;-78
2021/07/18 02:41:09;;;;;;;5.88;3.90;;;;;;;;;;5024019;28;20044;-77
2021/07/18 02:43:54;;;;;;;5.28;3.90;;;;;;;;;;5027105;28;20123;-78
2021/07/18 02:46:39;;;;;;;4.18;3.40;;;;;;;;;;5026507;28;20052;-80
2021/07/18 02:49:23;;;;;;;4.38;3.50;;;;;;;;;;5026325;28;20036;-79
2021/07/18 02:52:09;;;;;;;4.68;3.40;;;;;;;;;;5025540;28;20484;-78
2021/07/18 02:54:55;;;;;;;4.95;3.50;;;;;;;;;;5026173;28;20040;-77
2021/07/18 02:57:40;;;;;;;4.75;3.63;;;;;;;;;;5024907;28;20122;-77
2021/07/18 03:00:26;;;;;;;5.90;3.80;;;;;;;;;;5010528;28;20155;-80
2021/07/18 03:03:10;;;;;;;5.28;3.50;;;;;;;;;;5026065;28;20091;-80
2021/07/18 03:05:55;;;;;;;4.10;3.30;;;;;;;;;;5026351;28;20080;-79
2021/07/18 03:08:39;;;;;;;5.15;3.40;;;;;;;;;;5024707;28;20086;-76
2021/07/18 03:11:24;;;;;;;5.03;3.58;;;;;;;;;;5025840;28;20053;-79
2021/07/18 03:14:08;;;;;;;5.55;3.50;;;;;;;;;;5011356;28;20157;-80
2021/07/18 03:16:53;;;;;;;5.57;3.10;;;;;;;;;;5025164;28;20095;-77
2021/07/18 03:19:38;;;;;;;4.95;3.60;;;;;;;;;;5026059;28;20040;-77
2021/07/18 03:22:22;;;;;;;4.35;3.53;;;;;;;;;;5025434;28;20091;-79
2021/07/18 03:25:07;;;;;;;4.13;3.10;;;;;;;;;;5010895;28;20044;-79
2021/07/18 03:27:52;;;;;;;5.88;3.30;;;;;;;;;;5024540;28;20041;-77
2021/07/18 03:30:36;;;;;;;5.00;3.40;;;;;;;;;;5025110;28;20107;-79
2021/07/18 03:33:21;;;;;;;4.38;3.30;;;;;;;;;;5024250;28;20047;-77
2021/07/18 03:36:05;;;;;;;4.13;2.90;;;;;;;;;;5024826;28;20041;-77
2021/07/18 03:38:50;;;;;;;4.93;3.13;;;;;;;;;;4984733;28;1165023;-80
2021/07/18 03:41:35;;;;;;;4.72;3.15;;;;;;;;;;5011919;28;20052;-79
2021/07/18 03:44:19;;;;;;;4.60;3.13;;;;;;;;;;5025392;28;20852;-77
2021/07/18 03:47:04;;;;;;;5.72;3.10;;;;;;;;;;5011760;28;20048;-78
2021/07/18 03:49:49;;;;;;;5.15;3.05;;;;;;;;;;5016189;28;20103;-79
2021/07/18 03:52:33;;;;;;;3.85;2.88;;;;;;;;;;5025258;28;20548;-80
2021/07/18 03:55:18;;;;;;;4.70;3.20;;;;;;;;;;5006874;28;20037;-79
2021/07/18 03:58:02;;;;;;;4.50;3.05;;;;;;;;;;5012253;28;20122;-79
2021/07/18 04:00:47;;;;;;;4.07;2.97;;;;;;;;;;5025215;28;20040;-77
2021/07/18 04:03:31;;;;;;;5.13;2.88;;;;;;;;;;5024789;28;20032;-79
2021/07/18 04:06:16;;;;;;;4.32;3.00;;;;;;;;;;5026441;28;20124;-77
2021/07/18 04:09:01;;;;;;;4.10;2.70;;;;;;;;;;5024008;28;20048;-78
2021/07/18 04:11:45;;;;;;;4.75;3.08;;;;;;;;;;5011337;28;20747;-78
2021/07/18 04:14:30;;;;;;;3.90;2.90;;;;;;;;;;5025168;28;20044;-80
2021/07/18 04:17:14;;;;;;;5.20;2.95;;;;;;;;;;5025926;28;20213;-77
2021/07/18 04:19:59;;;;;;;2.90;2.60;;;;;;;;;;5005186;28;20577;-79
2021/07/18 04:22:44;;;;;;;3.20;2.55;;;;;;;;;;4993269;28;20171;-79
2021/07/18 04:25:28;;;;;;;3.17;2.40;;;;;;;;;;5010551;28;20040;-80
2021/07/18 04:28:13;;;;;;;4.93;2.72;;;;;;;;;;5024343;28;20458;-79
2021/07/18 04:30:57;;;;;;;3.92;2.60;;;;;;;;;;5024610;28;20129;-79
2021/07/18 04:33:43;;;;;;;3.83;2.53;;;;;;;;;;5024400;28;20041;-77
2021/07/18 04:36:28;;;;;;;4.10;2.35;;;;;;;;;;5023258;28;20520;-78
2021/07/18 04:39:13;;;;;;;3.47;2.60;;;;;;;;;;5025089;28;20039;-79
2021/07/18 04:41:59;;;;;;;2.80;2.17;;;;;;;;;;5025371;28;20545;-79
2021/07/18 04:44:44;;;;;;;2.80;2.40;;;;;;;;;;5025678;28;20048;-80
2021/07/18 04:47:28;;;;;;;3.17;2.22;;;;;;;;;;5024253;28;20094;-79
2021/07/18 04:50:13;;;;;;;3.80;2.40;;;;;;;;;;5024115;28;20060;-79
2021/07/18 04:52:58;;;;;;;2.53;2.08;;;;;;;;;;5024635;28;20045;-79
2021/07/18 04:55:42;;;;;;;3.28;2.05;;;;;;;;;;5024504;28;20572;-79
2021/07/18 04:58:27;;;;;;;3.67;2.30;;;;;;;;;;5009147;28;21011;-79
2021/07/18 05:01:11;;;;;;;3.17;2.05;;;;;;;;;;5004820;28;20055;-79
2021/07/18 05:03:56;;;;;;;3.03;2.20;;;;;;;;;;4991125;28;20044;-79
2021/07/18 05:06:40;;;;;;;4.18;2.40;;;;;;;;;;5005934;28;20048;-79
2021/07/18 05:09:25;;;;;;;3.00;2.30;;;;;;;;;;5011645;28;20040;-79
2021/07/18 05:12:09;;;;;;;3.28;2.03;;;;;;;;;;5024158;28;20086;-79
2021/07/18 05:14:54;;;;;;;2.58;2.17;;;;;;;;;;5025142;28;20676;-79
2021/07/18 05:17:38;;;;;;;3.38;2.25;;;;;;;;;;5009824;28;20114;-79
2021/07/18 05:20:23;;;;;;;2.55;2.15;;;;;;;;;;5024272;28;20052;-79
2021/07/18 05:23:08;;;;;;;2.75;2.03;;;;;;;;;;5024885;28;20121;-79
2021/07/18 05:25:53;;;;;;;3.22;2.00;;;;;;;;;;5023622;28;20044;-79
2021/07/18 05:28:38;;;;;;;2.55;1.83;;;;;;;;;;5023342;28;20175;-79
2021/07/18 05:31:22;;;;;;;3.53;2.05;;;;;;;;;;5023009;28;20051;-79
2021/07/18 05:34:06;;;;;;;3.92;2.10;;;;;;;;;;5023700;28;20095;-79
2021/07/18 05:36:51;;;;;;;2.95;1.90;;;;;;;;;;5023239;28;20044;-79
2021/07/18 05:39:36;;;;;;;3.78;1.98;;;;;;;;;;5023263;28;20413;-79
2021/07/18 05:42:20;;;;;;;3.20;2.08;;;;;;;;;;5014762;28;20043;-79
2021/07/18 05:45:06;;;;;;;2.50;1.95;;;;;;;;;;5024303;28;20041;-79
2021/07/18 05:47:50;;;;;;;2.90;1.90;;;;;;;;;;4990100;28;20080;-79
2021/07/18 05:50:35;;;;;;;3.47;2.10;;;;;;;;;;5005650;28;20509;-79
2021/07/18 05:53:20;;;;;;;2.92;2.00;;;;;;;;;;5023687;28;20091;-79
2021/07/18 05:56:05;;;;;;;4.07;1.90;;;;;;;;;;5024785;28;20119;-79
2021/07/18 05:58:50;;;;;;;2.90;1.88;;;;;;;;;;5023126;28;20052;-79
2021/07/18 06:01:34;;;;;;;3.78;2.00;;;;;;;;;;5023491;28;20127;-79
2021/07/18 06:04:19;;;;;;;3.53;1.58;;;;;;;;;;5003528;28;20045;-79
2021/07/18 06:07:03;;;;;;;2.85;1.83;;;;;;;;;;5007102;28;20478;-79
2021/07/18 06:09:48;;;;;;;3.25;2.05;;;;;;;;;;5022879;28;20048;-79
2021/07/18 06:12:33;;;;;;;3.05;2.00;;;;;;;;;;5023431;28;20048;-78
2021/07/18 06:15:17;;;;;;;3.75;1.83;;;;;;;;;;5023151;28;20091;-79
2021/07/18 06:18:02;;;;;;;2.25;1.60;;;;;;;;;;5024384;28;20083;-79
2021/07/18 06:20:47;;;;;;;4.47;1.90;;;;;;;;;;5015998;28;20073;-79
2021/07/18 06:23:32;;;;;;;2.40;1.70;;;;;;;;;;5003680;28;20148;-79
2021/07/18 06:26:16;;;;;;;3.45;1.80;;;;;;;;;;5022958;28;20036;-79
2021/07/18 06:29:01;;;;;;;3.45;1.67;;;;;;;;;;5009274;28;20095;-78
2021/07/18 06:31:45;;;;;;;2.88;1.70;;;;;;;;;;5023482;28;20129;-79
2021/07/18 06:34:30;;;;;;;2.78;1.80;;;;;;;;;;5016946;28;20139;-79
2021/07/18 06:37:15;;;;;;;2.25;1.63;;;;;;;;;;5026607;28;20040;-79
2021/07/18 06:40:00;;;;;;;2.35;1.67;;;;;;;;;;5026850;28;20525;-80
2021/07/18 06:42:44;;;;;;;2.25;1.38;;;;;;;;;;5027685;28;20084;-79
2021/07/18 06:45:29;;;;;;;3.42;1.73;;;;;;;;;;5026695;28;20040;-77
2021/07/18 06:48:14;;;;;;;2.22;1.73;;;;;;;;;;5027661;28;20044;-79
2021/07/18 06:50:58;;;;;;;2.92;1.38;;;;;;;;;;5028218;28;20056;-77
2021/07/18 06:53:43;;;;;;;1.77;1.40;;;;;;;;;;5027091;28;20481;-78
2021/07/18 06:56:28;;;;;;;4.03;1.60;;;;;;;;;;5027398;28;20096;-77
2021/07/18 06:59:13;;;;;;;2.92;1.65;;;;;;;;;;5026512;28;20072;-77
2021/07/18 07:01:57;;;;;;;3.78;1.80;;;;;;;;;;5027305;28;20040;-79
2021/07/18 07:04:42;;;;;;;3.05;1.50;;;;;;;;;;5027609;28;20118;-77
2021/07/18 07:07:27;;;;;;;2.28;1.77;;;;;;;;;;5012137;28;20538;-77
2021/07/18 07:10:11;;;;;;;2.95;1.90;;;;;;;;;;5027321;28;20110;-79
2021/07/18 07:12:56;;;;;;;3.40;1.45;;;;;;;;;;5026678;28;20036;-80
2021/07/18 07:15:40;;;;;;;2.55;1.67;;;;;;;;;;5026208;28;20048;-79
2021/07/18 07:18:25;;;;;;;2.78;1.90;;;;;;;;;;5025774;28;20063;-79
2021/07/18 07:21:10;;;;;;;2.45;1.65;;;;;;;;;;5024416;28;20112;-79
2021/07/18 07:23:54;;;;;;;2.22;1.63;;;;;;;;;;5017766;28;20120;-79
2021/07/18 07:26:39;;;;;;;2.15;1.45;;;;;;;;;;5024868;28;20126;-79
2021/07/18 07:29:24;;;;;;;2.40;1.50;;;;;;;;;;5035026;28;20044;-79
2021/07/18 07:32:08;;;;;;;3.60;1.70;;;;;;;;;;5036460;28;20048;-79
2021/07/18 07:34:53;;;;;;;3.08;1.70;;;;;;;;;;5025298;28;20513;-79
2021/07/18 07:37:37;;;;;;;2.33;1.63;;;;;;;;;;5011298;28;20087;-79
2021/07/18 07:40:22;;;;;;;2.30;1.90;;;;;;;;;;5026651;28;20422;-79
2021/07/18 07:43:06;;;;;;;2.97;1.70;;;;;;;;;;5011265;28;20520;-79
2021/07/18 07:45:51;;;;;;;3.33;1.60;;;;;;;;;;5024955;28;20584;-79
2021/07/18 07:48:36;;;;;;;2.00;1.42;;;;;;;;;;5011342;28;20504;-78
2021/07/18 07:51:20;;;;;;;3.13;1.63;;;;;;;;;;5025445;28;20128;-79
2021/07/18 07:54:05;;;;;;;2.58;1.90;;;;;;;;;;5006144;28;20565;-79
2021/07/18 07:56:50;;;;;;;2.22;1.63;;;;;;;;;;4995297;28;20044;-78
2021/07/18 07:59:34;;;;;;;2.60;1.88;;;;;;;;;;5024803;28;20032;-79
2021/07/18 08:02:19;;;;;;;1.80;1.50;;;;;;;;;;5025125;28;20079;-79
2021/07/18 08:05:04;;;;;;;2.97;1.83;;;;;;;;;;5025484;28;20574;-79
2021/07/18 08:07:49;;;;;;;2.72;1.95;;;;;;;;;;5011374;28;20402;-79
2021/07/18 08:10:34;;;;;;;2.97;1.83;;;;;;;;;;5024963;28;20048;-79
2021/07/18 08:13:18;;;;;;;2.55;1.70;;;;;;;;;;5026006;28;20417;-79
2021/07/18 08:16:03;;;;;;;2.22;1.65;;;;;;;;;;5025205;28;20170;-79
2021/07/18 08:18:48;;;;;;;2.20;1.63;;;;;;;;;;5010878;28;20098;-79
2021/07/18 08:21:32;;;;;;;2.13;1.77;;;;;;;;;;5025072;28;20136;-79
2021/07/18 08:24:17;;;;;;;2.60;1.60;;;;;;;;;;5005178;28;20048;-79
2021/07/18 08:27:02;;;;;;;3.58;1.73;;;;;;;;;;5006051;28;20096;-79
2021/07/18 08:29:47;;;;;;;2.60;1.95;;;;;;;;;;5024484;28;20607;-78
2021/07/18 08:32:31;;;;;;;2.35;1.70;;;;;;;;;;5024488;28;20044;-79
2021/07/18 08:35:16;;;;;;;3.40;1.70;;;;;;;;;;5024327;28;20048;-79
2021/07/18 08:38:01;;;;;;;2.95;1.55;;;;;;;;;;5025674;28;20039;-79
2021/07/18 08:40:45;;;;;;;2.78;1.65;;;;;;;;;;5024389;28;20164;-79
2021/07/18 08:43:31;;;;;;;2.58;1.73;;;;;;;;;;5025050;28;20048;-79
2021/07/18 08:46:18;;;;;;;2.10;1.80;;;;;;;;;;5024369;28;20117;-79
2021/07/18 08:49:03;;;;;;;2.55;1.70;;;;;;;;;;5024486;28;20723;-79
2021/07/18 08:51:47;;;;;;;1.98;1.55;;;;;;;;;;5018502;28;20492;-79
2021/07/18 08:54:32;;;;;;;2.33;1.83;;;;;;;;;;5024763;28;20608;-79
2021/07/18 08:57:18;;;;;;;2.60;1.77;;;;;;;;;;5024345;28;20049;-79
2021/07/18 09:00:04;;;;;;;2.15;1.60;;;;;;;;;;5025690;28;20040;-79
2021/07/18 09:02:48;;;;;;;3.15;1.90;;;;;;;;;;5024276;28;20492;-79
2021/07/18 09:05:33;;;;;;;2.67;1.67;;;;;;;;;;5025362;28;20092;-79
2021/07/18 09:08:19;;;;;;;1.77;1.55;;;;;;;;;;5004612;28;20110;-79
2021/07/18 09:11:03;;;;;;;2.50;1.70;;;;;;;;;;5005749;28;20056;-79
2021/07/18 09:13:55;;;;;;;2.22;1.70;;;;;;;;;;5022128;28;20596;-79
2021/07/18 09:16:40;;;;;;;2.53;1.50;;;;;;;;;;5023825;28;20093;-79
2021/07/18 09:19:26;;;;;;;2.65;1.90;;;;;;;;;;5023670;28;20094;-77
2021/07/18 09:22:12;;;;;;;2.13;1.70;;;;;;;;;;5009085;28;20714;-78
2021/07/18 09:25:00;;;;;;;2.53;1.77;;;;;;;;;;5009631;28;20043;-79
2021/07/18 09:27:44;;;;;;;2.65;1.73;;;;;;;;;;5023867;28;20063;-77
2021/07/18 09:30:32;;;;;;;1.90;1.60;;;;;;;;;;5023969;28;20064;-78
2021/07/18 09:33:21;;;;;;;2.40;1.80;;;;;;;;;;5006470;28;20100;-78
2021/07/18 09:36:12;;;;;;;2.78;1.65;;;;;;;;;;5020197;28;20550;-77
2021/07/18 09:39:07;;;;;;;2.33;1.92;;;;;;;;;;5023891;28;20886;-78
2021/07/18 09:41:57;;;;;;;2.40;1.90;;;;;;;;;;5024892;28;20504;-78
2021/07/18 09:44:45;;;;;;;2.40;1.90;;;;;;;;;;5025848;28;20048;-78
2021/07/18 09:47:30;;;;;;;2.72;1.90;;;;;;;;;;5025410;28;20436;-77
2021/07/18 09:50:41;;;;;;;3.70;2.05;;;;;;;;;;5024927;28;20127;-77
2021/07/18 09:53:26;;;;;;;2.20;1.75;;;;;;;;;;5023872;28;20426;-77
2021/07/18 09:56:12;;;;;;;2.80;1.70;;;;;;;;;;5018593;28;20056;-78
2021/07/18 09:58:57;;;;;;;2.75;2.00;;;;;;;;;;5022019;28;20048;-78
2021/07/18 10:01:41;;;;;;;2.50;1.90;;;;;;;;;;5014456;28;20092;-78
2021/07/18 10:04:26;;;;;;;2.88;1.98;;;;;;;;;;4990270;28;20508;-78
2021/07/18 10:07:10;;;;;;;2.50;1.67;;;;;;;;;;5018597;28;20037;-78
2021/07/18 10:09:55;;;;;;;3.72;2.00;;;;;;;;;;5024176;28;20090;-78
2021/07/18 10:12:39;;;;;;;2.80;1.80;;;;;;;;;;5021208;28;20117;-78
2021/07/18 10:15:24;;;;;;;2.50;1.70;;;;;;;;;;5022191;28;20040;-77
2021/07/18 10:18:08;;;;;;;2.90;1.92;;;;;;;;;;5023347;28;20040;-76
2021/07/18 10:20:54;;;;;;;3.45;1.80;;;;;;;;;;5017779;28;20037;-77
2021/07/18 10:23:39;;;;;;;3.33;2.30;;;;;;;;;;5005131;28;20040;-77
2021/07/18 10:26:25;;;;;;;3.88;2.20;;;;;;;;;;5019717;28;20452;-77
2021/07/18 10:29:10;;;;;;;2.20;1.73;;;;;;;;;;5017579;28;20052;-77
2021/07/18 10:31:54;;;;;;;2.03;1.80;;;;;;;;;;5017991;28;20052;-78
2021/07/18 10:34:39;;;;;;;2.65;1.98;;;;;;;;;;5022711;28;20044;-79
2021/07/18 10:37:25;;;;;;;2.78;1.90;;;;;;;;;;5019662;28;20120;-79
2021/07/18 10:40:13;;;;;;;2.90;1.90;;;;;;;;;;5017798;28;20095;-78
2021/07/18 10:42:59;;;;;;;2.10;1.70;;;;;;;;;;5023060;28;20043;-78
2021/07/18 10:45:44;;;;;;;2.70;1.80;;;;;;;;;;5023581;28;20056;-79
2021/07/18 10:48:41;;;;;;;2.92;1.80;;;;;;;;;;5007432;28;20040;-78
2021/07/18 10:51:35;;;;;;;2.70;2.00;;;;;;;;;;5025393;28;20055;-78
2021/07/18 10:54:20;;;;;;;2.03;1.80;;;;;;;;;;5025608;28;20040;-78
2021/07/18 10:57:06;;;;;;;2.65;2.05;;;;;;;;;;5022863;28;20110;-78
2021/07/18 10:59:51;;;;;;;2.42;1.92;;;;;;;;;;5024873;28;20044;-78
2021/07/18 11:02:36;;;;;;;2.63;1.90;;;;;;;;;;5021271;28;20045;-78
2021/07/18 11:05:21;;;;;;;5.15;2.00;;;;;;;;;;5020636;28;20529;-77
2021/07/18 11:08:06;;;;;;;2.47;1.90;;;;;;;;;;5020632;28;20079;-77
2021/07/18 11:10:51;;;;;;;2.70;1.75;;;;;;;;;;5023800;28;20073;-80
2021/07/18 11:13:36;;;;;;;3.50;2.03;;;;;;;;;;5015972;28;20047;-80
2021/07/18 11:16:40;;;;;;;2.85;2.13;;;;;;;;;;5006239;28;20467;-80
2021/07/18 11:19:37;;;;;;;2.63;2.10;;;;;;;;;;5019046;28;20501;-80
2021/07/18 11:22:42;;;;;;;3.05;1.98;;;;;;;;;;5016288;28;20405;-80
2021/07/18 11:25:45;;;;;;;3.65;2.10;;;;;;;;;;5019488;28;20134;-80
2021/07/18 11:28:30;;;;;;;3.65;2.03;;;;;;;;;;5024221;28;20056;-80
2021/07/18 11:31:18;;;;;;;2.90;2.10;;;;;;;;;;5016011;28;20099;-80
2021/07/18 11:34:07;;;;;;;3.03;2.20;;;;;;;;;;5014304;28;20088;-79
2021/07/18 11:36:52;;;;;;;4.60;2.20;;;;;;;;;;5012951;28;20680;-80
2021/07/18 11:39:37;;;;;;;4.22;2.35;;;;;;;;;;5018468;28;20513;-80
2021/07/18 11:42:21;;;;;;;5.22;2.60;;;;;;;;;;5022646;28;20509;-80
2021/07/18 11:45:09;;;;;;;4.63;2.20;;;;;;;;;;5024922;28;20039;-79
2021/07/18 11:47:54;;;;;;;4.82;2.83;;;;;;;;;;5023625;28;20036;-80
2021/07/18 11:50:39;;;;;;;3.63;2.33;;;;;;;;;;5022823;28;20069;-80
2021/07/18 11:53:23;;;;;;;4.53;3.10;;;;;;;;;;5009253;28;20035;-79
2021/07/18 11:56:17;;;;;;;5.88;3.08;;;;;;;;;;5025565;28;20533;-80
2021/07/18 11:59:12;;;;;;;5.88;3.20;;;;;;;;;;5015308;28;20095;-80
2021/07/18 12:01:57;;;;;;;5.03;3.00;;;;;;;;;;5020023;28;20028;-80
2021/07/18 12:04:42;;;;;;;4.03;3.17;;;;;;;;;;5020029;28;20095;-80
2021/07/18 12:07:27;;;;;;;4.40;2.92;;;;;;;;;;5025266;28;20040;-79
2021/07/18 12:10:19;;;;;;;4.57;3.00;;;;;;;;;;5023894;28;20049;-78
2021/07/18 12:13:04;;;;;;;5.63;3.25;;;;;;;;;;5021958;28;20060;-79
2021/07/18 12:15:55;;;;;;;6.10;3.97;;;;;;;;;;5022529;28;20857;-80
2021/07/18 12:18:50;;;;;;;4.97;3.42;;;;;;;;;;5023691;28;20060;-80
2021/07/18 12:21:39;;;;;;;5.50;3.80;;;;;;;;;;5010366;28;20053;-80
2021/07/18 12:24:25;;;;;;;5.03;3.83;;;;;;;;;;5024727;28;20080;-80
2021/07/18 12:27:14;;;;;;;4.88;3.60;;;;;;;;;;5024183;28;20131;-80
2021/07/18 12:30:03;;;;;;;5.72;3.33;;;;;;;;;;5020071;28;20112;-79
2021/07/18 12:32:48;;;;;;;5.93;3.90;;;;;;;;;;5010484;28;20048;-79
2021/07/18 12:35:32;;;;;;;6.95;3.65;;;;;;;;;;5023984;28;20092;-79
2021/07/18 12:38:21;;;;;;;7.35;4.40;;;;;;;;;;5022316;28;20048;-81
2021/07/18 12:41:05;;;;;;;4.95;3.42;;;;;;;;;;5012604;28;20044;-80
2021/07/18 12:43:50;;;;;;;6.13;3.67;;;;;;;;;;5024171;28;20039;-80
2021/07/18 12:46:34;;;;;;;6.30;4.15;;;;;;;;;;5025353;28;20056;-79
2021/07/18 12:49:19;;;;;;;7.35;4.10;;;;;;;;;;5020272;28;20083;-80
2021/07/18 12:52:05;;;;;;;6.20;3.97;;;;;;;;;;5022969;28;20056;-80
2021/07/18 12:54:49;;;;;;;5.95;4.40;;;;;;;;;;5015488;28;20501;-79
2021/07/18 12:57:34;;;;;;;6.93;4.13;;;;;;;;;;5015863;28;20465;-79
2021/07/18 13:00:20;;;;;;;7.18;3.92;;;;;;;;;;5021129;28;20032;-80
2021/07/18 13:03:11;;;;;;;6.38;4.53;;;;;;;;;;5017284;28;20044;-79
2021/07/18 13:06:04;;;;;;;6.80;4.15;;;;;;;;;;5010053;28;20033;-79
2021/07/18 13:08:50;;;;;;;8.35;4.85;;;;;;;;;;5018559;28;20117;-79
2021/07/18 13:11:37;;;;;;;6.07;4.20;;;;;;;;;;5023251;28;20099;-79
2021/07/18 13:14:22;;;;;;;6.35;4.40;;;;;;;;;;5019722;28;20040;-78
2021/07/18 13:17:09;;;;;;;6.43;4.32;;;;;;;;;;5018896;28;20044;-79
2021/07/18 13:19:58;;;;;;;6.63;4.38;;;;;;;;;;5013916;28;20036;-79
2021/07/18 13:22:44;;;;;;;8.88;5.00;;;;;;;;;;5022021;28;20125;-79
2021/07/18 13:25:30;;;;;;;6.15;4.32;;;;;;;;;;5022990;28;20052;-79
2021/07/18 13:28:25;;;;;;;6.07;4.68;;;;;;;;;;5021353;28;20425;-79
2021/07/18 13:31:10;;;;;;;7.07;4.53;;;;;;;;;;5018984;28;20076;-79
2021/07/18 13:34:03;;;;;;;7.57;5.32;;;;;;;;;;5019639;28;20083;-79
2021/07/18 13:36:55;;;;;;;7.28;4.88;;;;;;;;;;5021714;28;20547;-79
2021/07/18 13:39:40;;;;;;;6.68;4.57;;;;;;;;;;5023393;28;20410;-79
2021/07/18 13:42:34;;;;;;;7.85;4.82;;;;;;;;;;5004526;28;20123;-79
2021/07/18 13:45:18;;;;;;;8.70;4.72;;;;;;;;;;5013230;28;20489;-79
2021/07/18 13:48:03;;;;;;;7.47;4.68;;;;;;;;;;5027791;28;20059;-79
2021/07/18 13:50:48;;;;;;;6.32;4.78;;;;;;;;;;5027818;28;20064;-79
2021/07/18 13:53:33;;;;;;;6.68;4.50;;;;;;;;;;5024314;28;20129;-79
2021/07/18 13:56:17;;;;;;;8.65;5.10;;;;;;;;;;5011463;28;20548;-79
2021/07/18 13:59:02;;;;;;;8.57;4.57;;;;;;;;;;5024394;28;21042;-79
2021/07/18 14:01:47;;;;;;;8.57;4.97;;;;;;;;;;5024870;28;20043;-80
2021/07/18 14:04:31;;;;;;;6.50;4.60;;;;;;;;;;5024206;28;20044;-79
2021/07/18 14:07:16;;;;;;;7.07;4.70;;;;;;;;;;5023502;28;20549;-77
2021/07/18 14:10:01;;;;;;;7.05;4.75;;;;;;;;;;5008857;28;20132;-79
2021/07/18 14:12:45;;;;;;;5.63;4.15;;;;;;;;;;5025382;28;20044;-78
2021/07/18 14:15:30;;;;;;;6.65;4.70;;;;;;;;;;5025431;28;20206;-79
2021/07/18 14:18:14;;;;;;;7.68;4.85;;;;;;;;;;5025068;28;20103;-79
2021/07/18 14:20:59;;;;;;;6.82;4.72;;;;;;;;;;5015859;28;20064;-78
2021/07/18 14:23:44;;;;;;;6.95;4.55;;;;;;;;;;5025577;28;20044;-80
2021/07/18 14:26:29;;;;;;;7.18;4.43;;;;;;;;;;5026608;28;20032;-78
2021/07/18 14:29:13;;;;;;;5.60;4.70;;;;;;;;;;5026542;28;20052;-78
2021/07/18 14:31:58;;;;;;;7.18;4.78;;;;;;;;;;5027619;28;20049;-78
2021/07/18 14:34:42;;;;;;;6.90;4.75;;;;;;;;;;5011586;28;20047;-79
2021/07/18 14:37:30;;;;;;;6.93;4.80;;;;;;;;;;5027719;28;20040;-79
2021/07/18 14:40:15;;;;;;;7.78;4.75;;;;;;;;;;5027168;28;20090;-79
2021/07/18 14:43:00;;;;;;;7.20;4.70;;;;;;;;;;5012575;28;20036;-77
2021/07/18 14:45:45;;;;;;;5.72;4.30;;;;;;;;;;5027536;28;20044;-78
2021/07/18 14:48:30;;;;;;;7.57;4.70;;;;;;;;;;5026479;28;20048;-80
2021/07/18 14:51:14;;;;;;;5.95;4.60;;;;;;;;;;5027455;28;20057;-78
2021/07/18 14:54:00;;;;;;;8.60;5.03;;;;;;;;;;5026666;28;20126;-80
2021/07/18 14:56:44;;;;;;;7.60;4.80;;;;;;;;;;5027679;28;20037;-79
2021/07/18 14:59:29;;;;;;;6.85;4.28;;;;;;;;;;5011189;28;20036;-82
2021/07/18 15:02:14;;;;;;;7.88;5.05;;;;;;;;;;5025851;28;20091;-80
2021/07/18 15:04:58;;;;;;;6.22;4.38;;;;;;;;;;5024983;28;20143;-80
2021/07/18 15:07:43;;;;;;;6.05;5.00;;;;;;;;;;5022474;28;20044;-78
2021/07/18 15:10:29;;;;;;;6.15;4.53;;;;;;;;;;5027102;28;20111;-77
2021/07/18 15:13:14;;;;;;;6.43;4.40;;;;;;;;;;5022264;28;20060;-78
2021/07/18 15:15:58;;;;;;;6.90;4.45;;;;;;;;;;5025679;28;20870;-78
2021/07/18 15:18:43;;;;;;;8.07;4.70;;;;;;;;;;5025836;28;20437;-79
2021/07/18 15:21:27;;;;;;;6.38;4.65;;;;;;;;;;5026086;28;20125;-79
2021/07/18 15:24:12;;;;;;;6.10;4.60;;;;;;;;;;5025130;28;20064;-79
2021/07/18 15:26:57;;;;;;;5.78;4.30;;;;;;;;;;5025424;28;20072;-77
2021/07/18 15:29:42;;;;;;;6.85;4.38;;;;;;;;;;5024955;28;20036;-80
2021/07/18 15:32:26;;;;;;;7.35;4.75;;;;;;;;;;5020849;28;20072;-78
2021/07/18 15:35:11;;;;;;;5.63;4.90;;;;;;;;;;5022039;28;20048;-76
2021/07/18 15:37:56;;;;;;;6.93;4.50;;;;;;;;;;5017641;28;20095;-77
2021/07/18 15:40:41;;;;;;;5.80;4.13;;;;;;;;;;5033464;28;20048;-76
2021/07/18 15:43:25;;;;;;;6.00;4.60;;;;;;;;;;5024897;28;20086;-75
2021/07/18 15:46:10;;;;;;;6.43;4.53;;;;;;;;;;5024722;28;20581;-78
2021/07/18 15:48:55;;;;;;;5.90;4.50;;;;;;;;;;5025525;28;20052;-77
2021/07/18 15:51:39;;;;;;;6.75;4.70;;;;;;;;;;5025690;28;20676;-76
2021/07/18 15:54:24;;;;;;;5.63;4.18;;;;;;;;;;5024881;28;20040;-77
2021/07/18 15:57:08;;;;;;;6.45;4.50;;;;;;;;;;5024159;28;20099;-76
2021/07/18 15:59:53;;;;;;;7.03;4.90;;;;;;;;;;5023672;28;20055;-76
2021/07/18 16:02:37;;;;;;;6.70;5.03;;;;;;;;;;5024621;28;20111;-77
2021/07/18 16:05:22;;;;;;;6.25;5.00;;;;;;;;;;5023378;28;20056;-75
2021/07/18 16:08:07;;;;;;;8.23;5.78;;;;;;;;;;5025622;28;20564;-76
2021/07/18 16:10:51;;;;;;;7.45;5.25;;;;;;;;;;5021320;28;20152;-75
2021/07/18 16:13:36;;;;;;;7.05;5.68;;;;;;;;;;5025224;28;20409;-77
2021/07/18 16:16:20;;;;;;;7.35;6.13;;;;;;;;;;5024423;28;20539;-76
2021/07/18 16:19:05;;;;;;;8.27;5.63;;;;;;;;;;5011066;28;20560;-77
2021/07/18 16:21:50;;;;;;;6.25;5.50;;;;;;;;;;5009440;28;20064;-77
2021/07/18 16:24:34;;;;;;;9.27;6.13;;;;;;;;;;5023801;28;20180;-79
2021/07/18 16:27:19;;;;;;;8.20;5.85;;;;;;;;;;5021071;28;20083;-78
2021/07/18 16:30:07;;;;;;;9.18;6.18;;;;;;;;;;5008447;28;20175;-79
2021/07/18 16:32:52;;;;;;;7.63;6.00;;;;;;;;;;5017317;28;20110;-81